Time;durP1;ratioP1;P1;durP2;ratioP2;P2;SDS_P1;SDS_P2;PMS_P1;PMS_P2;Temp;Humidity;BMP_temperature;BMP_pressure;BME280_temperature;BME280_humidity;BME280_pressure;Samples;Min_cycle;Max_cycle;Signal;HPM_P1;HPM_P2
2022/12/09 00:01:25;;;;;;;26.15;16.05;;;;;;;;;;5032935;28;20048;-78
2022/12/09 00:03:53;;;;;;;19.40;12.57;;;;;;;;;;5016108;28;20116;-77
2022/12/09 00:06:24;;;;;;;20.77;11.70;;;;;;;;;;5036969;28;20052;-77
2022/12/09 00:08:50;;;;;;;16.75;11.45;;;;;;;;;;5022960;28;20448;-77
2022/12/09 00:11:17;;;;;;;16.60;10.40;;;;;;;;;;5041690;28;20476;-78
2022/12/09 00:13:43;;;;;;;15.00;11.25;;;;;;;;;;5022405;28;20037;-77
2022/12/09 00:16:11;;;;;;;17.05;10.43;;;;;;;;;;5031794;28;20029;-76
2022/12/09 00:18:37;;;;;;;15.88;9.98;;;;;;;;;;5029163;28;20017;-76
2022/12/09 00:21:12;;;;;;;17.63;11.82;;;;;;;;;;5029394;28;20025;-77
2022/12/09 00:23:39;;;;;;;14.73;10.57;;;;;;;;;;5023573;28;20503;-77
2022/12/09 00:26:05;;;;;;;13.73;9.65;;;;;;;;;;5035701;28;20029;-78
2022/12/09 00:28:31;;;;;;;15.23;10.05;;;;;;;;;;5026005;28;20117;-78
2022/12/09 00:31:07;;;;;;;15.93;10.07;;;;;;;;;;5028290;28;20393;-77
2022/12/09 00:33:34;;;;;;;16.63;9.20;;;;;;;;;;5034213;28;20376;-78
2022/12/09 00:36:05;;;;;;;21.05;10.38;;;;;;;;;;5049862;28;20029;-77
2022/12/09 00:38:31;;;;;;;20.27;10.65;;;;;;;;;;5028836;28;20036;-78
2022/12/09 00:40:57;;;;;;;13.95;9.85;;;;;;;;;;5023556;28;20160;-77
2022/12/09 00:43:23;;;;;;;12.98;8.88;;;;;;;;;;5013669;28;20029;-77
2022/12/09 00:45:49;;;;;;;16.35;10.35;;;;;;;;;;5024664;28;20036;-76
2022/12/09 00:48:15;;;;;;;19.70;11.98;;;;;;;;;;5024272;28;20044;-77
2022/12/09 00:50:41;;;;;;;17.70;11.43;;;;;;;;;;5037255;28;20447;-78
2022/12/09 00:53:07;;;;;;;18.38;11.65;;;;;;;;;;5020195;28;20068;-77
2022/12/09 00:55:35;;;;;;;22.90;12.30;;;;;;;;;;5027769;28;20032;-75
2022/12/09 00:58:01;;;;;;;17.17;11.60;;;;;;;;;;5041754;28;20514;-78
2022/12/09 01:00:27;;;;;;;18.58;10.82;;;;;;;;;;5042104;28;20133;-77
2022/12/09 01:02:53;;;;;;;14.63;10.27;;;;;;;;;;5032532;28;20033;-76
2022/12/09 01:05:19;;;;;;;16.20;10.15;;;;;;;;;;5030756;28;20203;-78
2022/12/09 01:07:45;;;;;;;18.15;11.25;;;;;;;;;;5030297;28;20574;-77
2022/12/09 01:10:11;;;;;;;16.08;10.85;;;;;;;;;;5028712;28;20029;-77
2022/12/09 01:12:37;;;;;;;15.00;10.43;;;;;;;;;;5032317;28;20404;-77
2022/12/09 01:15:04;;;;;;;16.10;9.90;;;;;;;;;;5026502;28;20052;-78
2022/12/09 01:17:30;;;;;;;12.30;9.07;;;;;;;;;;5025289;28;20061;-77
2022/12/09 01:19:56;;;;;;;15.57;9.88;;;;;;;;;;5023909;28;20030;-77
2022/12/09 01:22:22;;;;;;;16.23;10.25;;;;;;;;;;5040479;28;20033;-77
2022/12/09 01:24:48;;;;;;;16.05;10.88;;;;;;;;;;5022090;28;20029;-77
2022/12/09 01:27:14;;;;;;;15.77;11.27;;;;;;;;;;5043451;28;20050;-77
2022/12/09 01:29:41;;;;;;;18.90;10.30;;;;;;;;;;5024252;28;20037;-77
2022/12/09 01:32:07;;;;;;;14.95;10.75;;;;;;;;;;5023769;28;20484;-77
2022/12/09 01:34:33;;;;;;;15.20;10.65;;;;;;;;;;5029328;28;20302;-77
2022/12/09 01:36:59;;;;;;;22.45;14.18;;;;;;;;;;5028819;28;20565;-78
2022/12/09 01:39:28;;;;;;;45.03;18.23;;;;;;;;;;5042249;28;20033;-77
2022/12/09 01:41:54;;;;;;;45.92;22.73;;;;;;;;;;5040457;28;20061;-78
2022/12/09 01:44:24;;;;;;;25.00;14.70;;;;;;;;;;5038821;28;20048;-79
2022/12/09 01:46:54;;;;;;;22.83;12.73;;;;;;;;;;5048202;28;20072;-79
2022/12/09 01:49:31;;;;;;;19.52;10.73;;;;;;;;;;5050679;28;20029;-77
2022/12/09 01:52:01;;;;;;;16.02;9.95;;;;;;;;;;5037802;28;20040;-78
2022/12/09 01:54:27;;;;;;;19.85;11.45;;;;;;;;;;5037016;28;20063;-79
2022/12/09 01:56:54;;;;;;;15.73;10.52;;;;;;;;;;5037387;28;20036;-77
2022/12/09 01:59:21;;;;;;;18.55;9.52;;;;;;;;;;5026930;28;20200;-76
2022/12/09 02:01:49;;;;;;;15.57;9.57;;;;;;;;;;5033968;28;20037;-77
2022/12/09 02:04:15;;;;;;;13.85;8.35;;;;;;;;;;5028989;28;20025;-78
2022/12/09 02:06:41;;;;;;;13.25;8.90;;;;;;;;;;5033896;28;20380;-76
2022/12/09 02:09:08;;;;;;;16.23;8.50;;;;;;;;;;5025137;28;20057;-77
2022/12/09 02:11:39;;;;;;;11.65;8.43;;;;;;;;;;5025227;28;20404;-78
2022/12/09 02:14:05;;;;;;;12.60;9.05;;;;;;;;;;5025854;28;20079;-77
2022/12/09 02:16:36;;;;;;;12.25;8.82;;;;;;;;;;5027194;28;20045;-76
2022/12/09 02:19:08;;;;;;;15.20;11.77;;;;;;;;;;5024741;28;20480;-77
2022/12/09 02:21:36;;;;;;;12.80;8.85;;;;;;;;;;5025006;28;20036;-75
2022/12/09 02:24:10;;;;;;;14.38;9.35;;;;;;;;;;5023966;28;20097;-76
2022/12/09 02:26:41;;;;;;;14.25;9.10;;;;;;;;;;5044696;28;20065;-77
2022/12/09 02:29:10;;;;;;;11.77;8.27;;;;;;;;;;5029244;28;20509;-77
2022/12/09 02:31:39;;;;;;;13.75;8.60;;;;;;;;;;5025159;28;20037;-77
2022/12/09 02:34:08;;;;;;;12.43;8.02;;;;;;;;;;5024564;28;20029;-77
2022/12/09 02:36:40;;;;;;;12.38;8.25;;;;;;;;;;5035098;28;20140;-78
2022/12/09 02:39:07;;;;;;;11.35;7.70;;;;;;;;;;5032318;28;20475;-77
2022/12/09 02:41:34;;;;;;;13.32;8.52;;;;;;;;;;5026526;28;20034;-78
2022/12/09 02:44:04;;;;;;;12.15;7.93;;;;;;;;;;5025945;28;20502;-78
2022/12/09 02:46:32;;;;;;;10.52;7.85;;;;;;;;;;5027883;28;20099;-76
2022/12/09 02:48:58;;;;;;;11.32;7.63;;;;;;;;;;5031803;28;20028;-76
2022/12/09 02:51:28;;;;;;;13.15;9.07;;;;;;;;;;5028370;28;20048;-78
2022/12/09 02:53:57;;;;;;;14.95;8.02;;;;;;;;;;5038990;28;20036;-77
2022/12/09 02:56:23;;;;;;;13.93;9.95;;;;;;;;;;5027649;28;20013;-77
2022/12/09 02:58:50;;;;;;;11.85;7.70;;;;;;;;;;5027048;28;20033;-78
2022/12/09 03:01:23;;;;;;;12.23;9.25;;;;;;;;;;5024202;28;20113;-77
2022/12/09 03:03:50;;;;;;;14.00;9.57;;;;;;;;;;5029307;28;20034;-77
2022/12/09 03:06:17;;;;;;;14.32;8.45;;;;;;;;;;5027832;28;20093;-77
2022/12/09 03:08:47;;;;;;;18.30;8.05;;;;;;;;;;5022413;28;20075;-78
2022/12/09 03:11:15;;;;;;;15.23;8.20;;;;;;;;;;5026023;28;20088;-79
2022/12/09 03:13:41;;;;;;;14.15;8.20;;;;;;;;;;5035813;28;20026;-78
2022/12/09 03:16:30;;;;;;;15.10;8.68;;;;;;;;;;5025245;28;20399;-77
2022/12/09 03:19:03;;;;;;;13.40;8.77;;;;;;;;;;5028302;28;20030;-77
2022/12/09 03:21:30;;;;;;;14.23;8.68;;;;;;;;;;5026677;28;20372;-77
2022/12/09 03:23:58;;;;;;;11.55;7.80;;;;;;;;;;5025135;28;20099;-77
2022/12/09 03:26:27;;;;;;;15.00;8.70;;;;;;;;;;5029820;28;20099;-76
2022/12/09 03:28:57;;;;;;;13.77;8.07;;;;;;;;;;5027545;28;20056;-77
2022/12/09 03:31:24;;;;;;;15.48;7.88;;;;;;;;;;5022566;28;20534;-77
2022/12/09 03:33:52;;;;;;;13.15;8.15;;;;;;;;;;5028232;28;20554;-77
2022/12/09 03:36:19;;;;;;;13.65;8.13;;;;;;;;;;5042133;28;20543;-78
2022/12/09 03:38:47;;;;;;;14.52;8.35;;;;;;;;;;5029864;28;20021;-76
2022/12/09 03:41:20;;;;;;;13.15;7.68;;;;;;;;;;5032137;28;20108;-76
2022/12/09 03:43:51;;;;;;;14.15;8.98;;;;;;;;;;5026046;28;20036;-78
2022/12/09 03:46:18;;;;;;;20.05;9.93;;;;;;;;;;5025871;28;20132;-76
2022/12/09 03:48:44;;;;;;;11.63;8.15;;;;;;;;;;5029736;28;20025;-76
2022/12/09 03:51:16;;;;;;;15.27;9.32;;;;;;;;;;5036592;28;20430;-77
2022/12/09 03:53:46;;;;;;;13.63;8.38;;;;;;;;;;5028881;28;20026;-77
2022/12/09 03:56:17;;;;;;;12.57;8.10;;;;;;;;;;5025086;28;20491;-76
2022/12/09 03:58:44;;;;;;;14.05;8.52;;;;;;;;;;5022208;28;20055;-77
2022/12/09 04:01:11;;;;;;;13.68;8.38;;;;;;;;;;5028232;28;20100;-77
2022/12/09 04:03:37;;;;;;;12.85;8.32;;;;;;;;;;5020352;28;20053;-77
2022/12/09 04:06:03;;;;;;;12.02;7.63;;;;;;;;;;5027004;28;20033;-77
2022/12/09 04:08:29;;;;;;;13.23;9.82;;;;;;;;;;5024798;28;20029;-76
2022/12/09 04:10:55;;;;;;;16.83;8.30;;;;;;;;;;5025932;28;20116;-78
2022/12/09 04:13:21;;;;;;;15.35;9.02;;;;;;;;;;5030506;28;20025;-77
2022/12/09 04:15:47;;;;;;;13.43;7.80;;;;;;;;;;5027489;28;20420;-77
2022/12/09 04:18:13;;;;;;;9.82;7.72;;;;;;;;;;5025902;28;20021;-76
2022/12/09 04:20:40;;;;;;;12.73;8.25;;;;;;;;;;5027471;28;20109;-78
2022/12/09 04:23:06;;;;;;;12.73;7.55;;;;;;;;;;5039825;28;20032;-76
2022/12/09 04:25:32;;;;;;;15.05;9.27;;;;;;;;;;5032126;28;20033;-77
2022/12/09 04:27:58;;;;;;;15.48;7.90;;;;;;;;;;5028730;28;20128;-76
2022/12/09 04:30:24;;;;;;;14.18;8.50;;;;;;;;;;5025296;28;20095;-75
2022/12/09 04:32:50;;;;;;;14.15;9.70;;;;;;;;;;5020525;28;20053;-76
2022/12/09 04:35:16;;;;;;;13.85;9.02;;;;;;;;;;5027369;28;20022;-76
2022/12/09 04:37:42;;;;;;;18.17;8.40;;;;;;;;;;5025908;28;20565;-76
2022/12/09 04:40:08;;;;;;;16.08;9.48;;;;;;;;;;5043253;28;20036;-77
2022/12/09 04:42:34;;;;;;;16.80;8.80;;;;;;;;;;5020409;28;20124;-76
2022/12/09 04:45:00;;;;;;;15.68;9.10;;;;;;;;;;5024934;28;20060;-76
2022/12/09 04:47:26;;;;;;;15.82;9.38;;;;;;;;;;5024918;28;20043;-76
2022/12/09 04:49:52;;;;;;;16.70;8.48;;;;;;;;;;5027131;28;20029;-76
2022/12/09 04:52:19;;;;;;;16.20;10.00;;;;;;;;;;5027374;28;20025;-77
2022/12/09 04:54:45;;;;;;;13.80;9.25;;;;;;;;;;5019139;28;20223;-77
2022/12/09 04:57:11;;;;;;;12.95;8.73;;;;;;;;;;5027232;28;20033;-77
2022/12/09 04:59:37;;;;;;;18.63;9.30;;;;;;;;;;5020849;28;20032;-77
2022/12/09 05:02:03;;;;;;;15.20;9.18;;;;;;;;;;5027689;28;20124;-77
2022/12/09 05:04:29;;;;;;;13.95;8.75;;;;;;;;;;5040234;28;20037;-76
2022/12/09 05:06:55;;;;;;;18.42;10.13;;;;;;;;;;5023463;28;20081;-77
2022/12/09 05:09:21;;;;;;;15.05;9.45;;;;;;;;;;5022682;28;20120;-76
2022/12/09 05:11:48;;;;;;;18.67;9.57;;;;;;;;;;5020451;28;20029;-76
2022/12/09 05:14:14;;;;;;;14.57;8.90;;;;;;;;;;5028403;28;20481;-76
2022/12/09 05:16:40;;;;;;;19.85;10.43;;;;;;;;;;5023627;28;20037;-77
2022/12/09 05:19:06;;;;;;;14.20;9.00;;;;;;;;;;5029564;28;20013;-77
2022/12/09 05:21:32;;;;;;;14.88;8.80;;;;;;;;;;5026289;28;20037;-77
2022/12/09 05:23:58;;;;;;;19.25;10.40;;;;;;;;;;5027061;28;20021;-77
2022/12/09 05:26:24;;;;;;;20.70;11.35;;;;;;;;;;5023026;28;20128;-77
2022/12/09 05:28:51;;;;;;;14.45;8.75;;;;;;;;;;5031068;28;20522;-78
2022/12/09 05:31:19;;;;;;;16.48;9.88;;;;;;;;;;5020734;28;20037;-77
2022/12/09 05:33:46;;;;;;;13.52;8.55;;;;;;;;;;5024622;28;20022;-77
2022/12/09 05:36:13;;;;;;;14.00;8.38;;;;;;;;;;5024856;28;20022;-77
2022/12/09 05:38:39;;;;;;;16.13;9.35;;;;;;;;;;5027631;28;20021;-77
2022/12/09 05:41:06;;;;;;;15.52;9.60;;;;;;;;;;5024382;28;20029;-78
2022/12/09 05:43:32;;;;;;;13.05;9.30;;;;;;;;;;5030314;28;20117;-77
2022/12/09 05:45:58;;;;;;;20.33;10.43;;;;;;;;;;5026202;28;20061;-78
2022/12/09 05:48:25;;;;;;;17.60;9.55;;;;;;;;;;5039814;28;20033;-78
2022/12/09 05:51:01;;;;;;;21.30;10.07;;;;;;;;;;5034433;28;20276;-78
2022/12/09 05:53:28;;;;;;;17.85;9.25;;;;;;;;;;5028301;28;20028;-77
2022/12/09 05:55:54;;;;;;;16.45;9.52;;;;;;;;;;5029664;28;20053;-76
2022/12/09 05:58:20;;;;;;;13.02;9.55;;;;;;;;;;5029752;28;20029;-77
2022/12/09 06:00:47;;;;;;;14.60;8.05;;;;;;;;;;5032017;28;20037;-77
2022/12/09 06:03:13;;;;;;;20.17;10.82;;;;;;;;;;5031532;28;20028;-77
2022/12/09 06:05:39;;;;;;;21.63;11.02;;;;;;;;;;5028057;28;20033;-77
2022/12/09 06:08:05;;;;;;;16.05;9.88;;;;;;;;;;5028523;28;20225;-77
2022/12/09 06:10:31;;;;;;;18.42;10.80;;;;;;;;;;5030560;28;20083;-78
2022/12/09 06:12:58;;;;;;;21.50;11.55;;;;;;;;;;5030172;28;20104;-77
2022/12/09 06:15:24;;;;;;;19.02;9.55;;;;;;;;;;5023746;28;20041;-77
2022/12/09 06:17:50;;;;;;;15.68;8.77;;;;;;;;;;5042500;28;20229;-77
2022/12/09 06:20:17;;;;;;;23.00;10.55;;;;;;;;;;5046766;28;20825;-77
2022/12/09 06:22:43;;;;;;;17.13;10.68;;;;;;;;;;5026654;28;20037;-78
2022/12/09 06:25:09;;;;;;;14.57;8.73;;;;;;;;;;5058897;28;20017;-78
2022/12/09 06:27:36;;;;;;;19.23;10.07;;;;;;;;;;5040899;28;20061;-77
2022/12/09 06:30:02;;;;;;;16.90;9.82;;;;;;;;;;5027001;28;20577;-77
2022/12/09 06:32:29;;;;;;;17.77;12.07;;;;;;;;;;5029958;28;20041;-77
2022/12/09 06:34:55;;;;;;;15.85;10.63;;;;;;;;;;5032061;28;20093;-77
2022/12/09 06:37:22;;;;;;;20.85;10.23;;;;;;;;;;5042716;28;20032;-77
2022/12/09 06:39:48;;;;;;;23.17;12.02;;;;;;;;;;5030616;28;20026;-77
2022/12/09 06:42:14;;;;;;;21.95;12.10;;;;;;;;;;5046930;28;20025;-77
2022/12/09 06:44:40;;;;;;;20.52;11.95;;;;;;;;;;5035416;28;20380;-76
2022/12/09 06:47:07;;;;;;;21.70;10.77;;;;;;;;;;5036326;28;20261;-77
2022/12/09 06:49:33;;;;;;;18.55;10.50;;;;;;;;;;5036515;28;20033;-77
2022/12/09 06:51:59;;;;;;;17.58;10.70;;;;;;;;;;5033875;28;20096;-77
2022/12/09 06:54:25;;;;;;;15.70;11.68;;;;;;;;;;5036059;28;20492;-76
2022/12/09 06:56:51;;;;;;;17.90;10.73;;;;;;;;;;5026654;28;20382;-77
2022/12/09 06:59:17;;;;;;;17.00;10.20;;;;;;;;;;5024616;28;20026;-77
2022/12/09 07:01:44;;;;;;;19.00;10.40;;;;;;;;;;5034995;28;20030;-76
2022/12/09 07:04:12;;;;;;;20.63;11.05;;;;;;;;;;5026891;28;20380;-76
2022/12/09 07:06:40;;;;;;;28.10;12.00;;;;;;;;;;5033082;28;20033;-78
2022/12/09 07:09:10;;;;;;;18.58;11.70;;;;;;;;;;5032528;28;20548;-77
2022/12/09 07:11:37;;;;;;;17.45;10.75;;;;;;;;;;5030543;28;20030;-77
2022/12/09 07:14:03;;;;;;;18.40;10.73;;;;;;;;;;5031499;28;20029;-77
2022/12/09 07:16:30;;;;;;;23.55;12.82;;;;;;;;;;5029460;28;20397;-77
2022/12/09 07:18:56;;;;;;;20.58;11.13;;;;;;;;;;5030516;28;20025;-78
2022/12/09 07:21:22;;;;;;;21.85;11.45;;;;;;;;;;5030154;28;20033;-77
2022/12/09 07:23:48;;;;;;;23.40;13.18;;;;;;;;;;5029564;28;20479;-77
2022/12/09 07:26:15;;;;;;;22.58;12.48;;;;;;;;;;5034431;28;20056;-78
2022/12/09 07:28:41;;;;;;;28.38;12.27;;;;;;;;;;5030383;28;20041;-77
2022/12/09 07:31:21;;;;;;;23.65;12.43;;;;;;;;;;5029649;28;20044;-79
2022/12/09 07:33:48;;;;;;;23.48;12.02;;;;;;;;;;5038156;28;20049;-77
2022/12/09 07:36:14;;;;;;;21.80;11.07;;;;;;;;;;5047941;28;20020;-77
2022/12/09 07:38:40;;;;;;;22.15;10.13;;;;;;;;;;5033425;28;20539;-77
2022/12/09 07:41:07;;;;;;;21.00;10.27;;;;;;;;;;5031648;28;20025;-77
2022/12/09 07:43:34;;;;;;;20.98;10.27;;;;;;;;;;5027615;28;20033;-77
2022/12/09 07:46:05;;;;;;;28.23;11.50;;;;;;;;;;5031363;28;20025;-74
2022/12/09 07:48:31;;;;;;;19.45;10.30;;;;;;;;;;5030196;28;20488;-75
2022/12/09 07:51:00;;;;;;;18.92;11.05;;;;;;;;;;5029013;28;20188;-77
2022/12/09 07:53:26;;;;;;;20.05;10.93;;;;;;;;;;5029785;28;20029;-80
2022/12/09 07:55:52;;;;;;;23.80;11.85;;;;;;;;;;5036777;28;20446;-77
2022/12/09 07:58:19;;;;;;;21.83;10.65;;;;;;;;;;5034479;28;20021;-78
2022/12/09 08:00:46;;;;;;;22.42;11.02;;;;;;;;;;5045533;28;20120;-77
2022/12/09 08:03:14;;;;;;;19.75;10.95;;;;;;;;;;5030694;28;20025;-77
2022/12/09 08:05:48;;;;;;;24.38;11.32;;;;;;;;;;5035228;28;20041;-77
2022/12/09 08:08:14;;;;;;;33.42;12.73;;;;;;;;;;5036147;28;20048;-77
2022/12/09 08:10:40;;;;;;;24.10;10.90;;;;;;;;;;5028433;28;20033;-77
2022/12/09 08:13:06;;;;;;;28.73;11.25;;;;;;;;;;5035542;28;20021;-76
2022/12/09 08:15:32;;;;;;;24.65;12.10;;;;;;;;;;5030310;28;20044;-77
2022/12/09 08:17:58;;;;;;;29.80;13.02;;;;;;;;;;5037967;28;20014;-77
2022/12/09 08:20:25;;;;;;;23.77;11.68;;;;;;;;;;5032803;28;20074;-76
2022/12/09 08:22:51;;;;;;;22.33;12.50;;;;;;;;;;5033722;28;20466;-77
2022/12/09 08:25:17;;;;;;;27.83;11.13;;;;;;;;;;5029396;28;20025;-76
2022/12/09 08:27:46;;;;;;;22.52;10.68;;;;;;;;;;5038531;28;20056;-76
2022/12/09 08:30:12;;;;;;;22.30;11.20;;;;;;;;;;5034680;28;20502;-78
2022/12/09 08:32:38;;;;;;;22.40;12.75;;;;;;;;;;5034341;28;20032;-78
2022/12/09 08:35:05;;;;;;;22.80;12.20;;;;;;;;;;5032045;28;20431;-77
2022/12/09 08:37:31;;;;;;;27.42;11.65;;;;;;;;;;5040593;28;20072;-76
2022/12/09 08:39:57;;;;;;;26.13;11.60;;;;;;;;;;5028963;28;20223;-77
2022/12/09 08:42:23;;;;;;;18.55;11.77;;;;;;;;;;5034789;28;20040;-74
2022/12/09 08:44:49;;;;;;;24.90;13.55;;;;;;;;;;5049706;28;20026;-79
2022/12/09 08:47:15;;;;;;;26.80;12.63;;;;;;;;;;5038239;28;20101;-78
2022/12/09 08:49:41;;;;;;;22.38;10.77;;;;;;;;;;5036516;28;20045;-78
2022/12/09 08:52:07;;;;;;;23.00;11.40;;;;;;;;;;5053307;28;20541;-78
2022/12/09 08:54:34;;;;;;;24.80;10.80;;;;;;;;;;5038549;28;20025;-78
2022/12/09 08:57:00;;;;;;;24.75;11.15;;;;;;;;;;5043037;28;20025;-78
2022/12/09 08:59:26;;;;;;;19.73;11.13;;;;;;;;;;5034230;28;20033;-77
2022/12/09 09:01:53;;;;;;;25.52;12.05;;;;;;;;;;5032434;28;20057;-76
2022/12/09 09:04:21;;;;;;;20.65;10.02;;;;;;;;;;5031961;28;20029;-76
2022/12/09 09:06:48;;;;;;;29.13;11.93;;;;;;;;;;5032453;28;20021;-77
2022/12/09 09:09:15;;;;;;;26.00;12.23;;;;;;;;;;5031658;28;20052;-79
2022/12/09 09:11:41;;;;;;;26.70;11.95;;;;;;;;;;5029827;28;20029;-75
2022/12/09 09:14:08;;;;;;;31.75;14.25;;;;;;;;;;5025269;28;20366;-77
2022/12/09 09:16:34;;;;;;;39.83;13.73;;;;;;;;;;5025988;28;20466;-77
2022/12/09 09:19:04;;;;;;;40.17;12.27;;;;;;;;;;5027080;28;20070;-77
2022/12/09 09:21:31;;;;;;;29.20;10.25;;;;;;;;;;5027854;28;20034;-78
2022/12/09 09:23:57;;;;;;;26.98;11.13;;;;;;;;;;5044569;28;20395;-77
2022/12/09 09:26:24;;;;;;;32.83;12.15;;;;;;;;;;5038977;28;20128;-76
2022/12/09 09:28:51;;;;;;;38.85;12.85;;;;;;;;;;5039479;28;20163;-79
2022/12/09 09:31:18;;;;;;;30.60;12.85;;;;;;;;;;5024038;28;20044;-78
2022/12/09 09:33:44;;;;;;;30.77;11.23;;;;;;;;;;5029113;28;20484;-77
2022/12/09 09:36:22;;;;;;;42.45;14.32;;;;;;;;;;5025961;28;20037;-77
2022/12/09 09:38:49;;;;;;;45.53;13.52;;;;;;;;;;5027431;28;20904;-78
2022/12/09 09:41:19;;;;;;;26.45;11.32;;;;;;;;;;5037716;28;20033;-78
2022/12/09 09:43:46;;;;;;;44.05;12.00;;;;;;;;;;5036516;28;20526;-78
2022/12/09 09:46:17;;;;;;;37.17;12.70;;;;;;;;;;5029781;28;20044;-78
2022/12/09 09:48:44;;;;;;;34.95;15.02;;;;;;;;;;5029686;28;20060;-77
2022/12/09 09:51:13;;;;;;;52.25;13.95;;;;;;;;;;5047253;28;20071;-77
2022/12/09 09:53:40;;;;;;;41.13;13.35;;;;;;;;;;5037258;28;20025;-76
2022/12/09 09:56:07;;;;;;;24.80;11.15;;;;;;;;;;5031663;28;20056;-76
2022/12/09 09:58:42;;;;;;;38.20;12.38;;;;;;;;;;5035237;28;20052;-78
2022/12/09 10:01:16;;;;;;;27.08;12.80;;;;;;;;;;5030959;28;20029;-77
2022/12/09 10:04:04;;;;;;;31.27;12.18;;;;;;;;;;5031977;28;20029;-83
2022/12/09 10:06:33;;;;;;;31.42;12.10;;;;;;;;;;5048483;28;20032;-77
2022/12/09 10:09:18;;;;;;;37.60;11.60;;;;;;;;;;5043091;28;20405;-79
2022/12/09 10:11:56;;;;;;;35.38;11.40;;;;;;;;;;5045743;28;20042;-79
2022/12/09 10:14:28;;;;;;;46.55;13.88;;;;;;;;;;5067484;28;20029;-79
2022/12/09 10:17:19;;;;;;;50.42;13.48;;;;;;;;;;5048146;28;20033;-78
2022/12/09 10:19:47;;;;;;;38.60;11.95;;;;;;;;;;5045299;28;20072;-79
2022/12/09 10:22:19;;;;;;;39.63;11.52;;;;;;;;;;5065890;28;19993;-78
2022/12/09 10:25:06;;;;;;;39.65;13.13;;;;;;;;;;5045684;28;20021;-78
2022/12/09 10:27:38;;;;;;;38.10;11.77;;;;;;;;;;5056231;28;20071;-80
2022/12/09 10:30:06;;;;;;;42.13;13.05;;;;;;;;;;5054894;28;20025;-78
2022/12/09 10:32:34;;;;;;;43.00;11.68;;;;;;;;;;5051387;28;20547;-78
2022/12/09 10:35:00;;;;;;;43.33;12.20;;;;;;;;;;5045345;28;20024;-78
2022/12/09 10:37:26;;;;;;;28.08;10.20;;;;;;;;;;5035143;28;20030;-78
2022/12/09 10:40:16;;;;;;;41.33;11.75;;;;;;;;;;5057713;28;20411;-77
2022/12/09 10:45:32;;;;;;;34.30;10.60;;;;;;;;;;5031812;28;20479;-77
2022/12/09 10:48:00;;;;;;;20.30;9.45;;;;;;;;;;5053627;28;20089;-78
2022/12/09 10:50:34;;;;;;;36.55;11.65;;;;;;;;;;5044690;28;20044;-79
2022/12/09 10:53:11;;;;;;;30.92;11.77;;;;;;;;;;5037957;28;20019;-77
2022/12/09 10:55:38;;;;;;;26.40;9.98;;;;;;;;;;5033448;28;20491;-76
2022/12/09 10:58:10;;;;;;;25.38;9.85;;;;;;;;;;5035725;28;20080;-77
2022/12/09 11:00:36;;;;;;;22.45;9.05;;;;;;;;;;5037888;28;20029;-78
2022/12/09 11:03:02;;;;;;;28.48;11.02;;;;;;;;;;5048147;28;20046;-77
2022/12/09 11:05:30;;;;;;;25.67;11.10;;;;;;;;;;5028641;28;20038;-78
2022/12/09 11:07:57;;;;;;;15.95;8.10;;;;;;;;;;5024876;28;20057;-77
2022/12/09 11:10:24;;;;;;;19.58;8.82;;;;;;;;;;5030820;28;20040;-77
2022/12/09 11:12:52;;;;;;;18.25;9.30;;;;;;;;;;5025882;28;20021;-78
2022/12/09 11:15:26;;;;;;;21.67;8.60;;;;;;;;;;5034135;28;20016;-78
2022/12/09 11:17:56;;;;;;;15.55;8.07;;;;;;;;;;5033543;28;20032;-78
2022/12/09 11:20:23;;;;;;;26.08;9.38;;;;;;;;;;5044660;28;20543;-78
2022/12/09 11:23:21;;;;;;;25.73;9.80;;;;;;;;;;5037925;28;20112;-79
2022/12/09 11:25:58;;;;;;;25.83;8.95;;;;;;;;;;5028806;28;20109;-80
2022/12/09 11:28:26;;;;;;;21.98;9.35;;;;;;;;;;5047743;28;20041;-80
2022/12/09 11:31:00;;;;;;;18.27;9.13;;;;;;;;;;5047100;28;20029;-78
2022/12/09 11:33:31;;;;;;;22.30;8.38;;;;;;;;;;5037449;28;20033;-78
2022/12/09 11:36:02;;;;;;;21.63;8.60;;;;;;;;;;5045679;28;20033;-78
2022/12/09 11:38:31;;;;;;;14.68;8.32;;;;;;;;;;5050178;28;20025;-78
2022/12/09 11:41:04;;;;;;;21.58;10.35;;;;;;;;;;5065795;28;20050;-77
2022/12/09 11:43:36;;;;;;;16.17;9.20;;;;;;;;;;5050485;28;20480;-75
2022/12/09 11:46:08;;;;;;;23.08;11.23;;;;;;;;;;5044002;28;20063;-77
2022/12/09 11:48:34;;;;;;;18.67;9.85;;;;;;;;;;5045295;28;20028;-79
2022/12/09 11:51:01;;;;;;;17.63;10.68;;;;;;;;;;5051832;28;20257;-77
2022/12/09 11:53:34;;;;;;;16.15;8.55;;;;;;;;;;5047725;28;20025;-77
2022/12/09 11:56:07;;;;;;;17.20;8.60;;;;;;;;;;5050269;28;20055;-78
2022/12/09 11:58:33;;;;;;;16.45;7.32;;;;;;;;;;5045336;28;20021;-78
2022/12/09 12:01:02;;;;;;;16.33;8.10;;;;;;;;;;5051563;28;20033;-80
2022/12/09 12:03:41;;;;;;;35.85;22.98;;;;;;;;;;5058570;28;20052;-81
2022/12/09 12:06:16;;;;;;;196.75;105.28;;;;;;;;;;5063208;28;20013;-79
2022/12/09 12:08:47;;;;;;;760.95;366.38;;;;;;;;;;5063644;28;20111;-80
2022/12/09 12:11:17;;;;;;;260.40;140.60;;;;;;;;;;5055650;28;20017;-78
2022/12/09 12:13:47;;;;;;;48.75;36.05;;;;;;;;;;5054830;28;20032;-80
2022/12/09 12:16:13;;;;;;;24.15;17.40;;;;;;;;;;5050715;28;20028;-81
2022/12/09 12:18:44;;;;;;;19.98;13.13;;;;;;;;;;5050350;28;20033;-79
2022/12/09 12:21:32;;;;;;;22.40;11.00;;;;;;;;;;5047417;28;20106;-79
2022/12/09 12:24:11;;;;;;;24.20;13.68;;;;;;;;;;5057624;28;20037;-79
2022/12/09 12:26:37;;;;;;;17.02;10.20;;;;;;;;;;5049559;28;20048;-78
2022/12/09 12:29:03;;;;;;;21.80;11.10;;;;;;;;;;5050047;28;20056;-79
2022/12/09 12:31:32;;;;;;;103.72;59.63;;;;;;;;;;5045493;28;20043;-77
2022/12/09 12:34:13;;;;;;;132.10;75.75;;;;;;;;;;5049055;28;20026;-76
2022/12/09 12:36:58;;;;;;;95.68;53.17;;;;;;;;;;5040395;28;20480;-80
2022/12/09 12:39:27;;;;;;;55.08;27.35;;;;;;;;;;5059243;28;20042;-78
2022/12/09 12:42:00;;;;;;;51.40;23.95;;;;;;;;;;5067900;28;20021;-77
2022/12/09 12:47:23;;;;;;;30.17;12.93;;;;;;;;;;5056755;28;20032;-76
2022/12/09 12:49:49;;;;;;;23.10;11.20;;;;;;;;;;5039107;28;20215;-78
2022/12/09 12:52:18;;;;;;;21.00;10.82;;;;;;;;;;5064555;28;20032;-80
2022/12/09 12:54:44;;;;;;;26.77;11.68;;;;;;;;;;5039028;28;20036;-78
2022/12/09 12:57:22;;;;;;;26.30;9.13;;;;;;;;;;5054922;28;20085;-78
2022/12/09 12:59:54;;;;;;;20.30;10.25;;;;;;;;;;5059354;28;20492;-79
2022/12/09 13:02:20;;;;;;;18.67;9.18;;;;;;;;;;5042588;28;20108;-79
2022/12/09 13:04:52;;;;;;;25.70;11.15;;;;;;;;;;5043090;28;22041;-77
2022/12/09 13:07:21;;;;;;;18.15;10.35;;;;;;;;;;5045339;28;20462;-78
2022/12/09 13:09:52;;;;;;;16.30;10.25;;;;;;;;;;5038508;28;20041;-78
2022/12/09 13:12:52;;;;;;;19.40;10.77;;;;;;;;;;5040034;28;20021;-81
2022/12/09 13:15:11;;;;;;;29.95;11.15;;;;;;;;;;5046607;28;20085;-80
2022/12/09 13:17:37;;;;;;;20.05;10.52;;;;;;;;;;5053901;28;20045;-80
2022/12/09 13:20:04;;;;;;;23.17;11.52;;;;;;;;;;5057913;28;20064;-80
2022/12/09 13:22:43;;;;;;;25.02;11.77;;;;;;;;;;5057330;28;20030;-80
2022/12/09 13:25:21;;;;;;;22.88;10.85;;;;;;;;;;5064873;28;20021;-80
2022/12/09 13:27:52;;;;;;;21.00;11.18;;;;;;;;;;5057921;28;20041;-80
2022/12/09 13:30:21;;;;;;;27.13;12.05;;;;;;;;;;5069441;28;20063;-79
2022/12/09 13:33:07;;;;;;;24.55;12.13;;;;;;;;;;5058154;28;20215;-79
2022/12/09 13:35:33;;;;;;;;;;;;;;;;;;5067352;28;20029;-77
2022/12/09 13:37:59;;;;;;;22.17;11.27;;;;;;;;;;5068755;28;19912;-78
2022/12/09 13:40:36;;;;;;;27.55;12.00;;;;;;;;;;5074457;28;20040;-79
2022/12/09 13:43:02;;;;;;;25.55;11.65;;;;;;;;;;5080535;28;20009;-77
2022/12/09 13:45:28;;;;;;;23.17;12.23;;;;;;;;;;5058515;28;20541;-78
2022/12/09 13:47:55;;;;;;;28.65;11.35;;;;;;;;;;5052099;28;20104;-80
2022/12/09 13:50:25;;;;;;;21.08;10.57;;;;;;;;;;5063274;28;20025;-79
2022/12/09 13:52:53;;;;;;;25.38;10.20;;;;;;;;;;5064935;28;20013;-81
2022/12/09 13:55:30;;;;;;;28.63;12.02;;;;;;;;;;5062256;28;20009;-79
2022/12/09 13:58:15;;;;;;;27.95;11.98;;;;;;;;;;5064095;28;20060;-84
2022/12/09 14:00:43;;;;;;;24.30;11.40;;;;;;;;;;5053538;28;20033;-79
2022/12/09 14:03:29;;;;;;;22.85;9.80;;;;;;;;;;5076110;28;20040;-81
2022/12/09 14:05:56;;;;;;;21.70;11.30;;;;;;;;;;5073683;28;20032;-79
2022/12/09 14:08:24;;;;;;;25.33;12.25;;;;;;;;;;5048931;28;20045;-79
2022/12/09 14:10:51;;;;;;;23.02;11.55;;;;;;;;;;5055379;28;20068;-78
2022/12/09 14:13:44;;;;;;;23.77;11.90;;;;;;;;;;5049133;28;20426;-78
2022/12/09 14:16:13;;;;;;;25.35;12.23;;;;;;;;;;5047595;28;20025;-79
2022/12/09 14:18:39;;;;;;;20.23;10.93;;;;;;;;;;5044434;28;20388;-80
2022/12/09 14:21:17;;;;;;;25.58;11.88;;;;;;;;;;5044190;28;20063;-82
2022/12/09 14:24:02;;;;;;;32.35;13.55;;;;;;;;;;5057639;28;20028;-79
2022/12/09 14:26:36;;;;;;;33.08;13.32;;;;;;;;;;5060583;28;20128;-80
2022/12/09 14:29:03;;;;;;;25.80;12.27;;;;;;;;;;5056853;28;20030;-78
2022/12/09 14:31:46;;;;;;;23.20;11.63;;;;;;;;;;5052406;28;20033;-79
2022/12/09 14:34:26;;;;;;;25.17;13.43;;;;;;;;;;5050784;28;20029;-79
2022/12/09 14:37:08;;;;;;;30.80;13.40;;;;;;;;;;5064400;28;20139;-77